sensor_id;sensor_type;location;lat;lon;timestamp;P1;durP1;ratioP1;P2;durP2;ratioP2
39694;SDS011;25367;-35.352;149.036;2022-07-29T00:01:14;2.35;;;0.50;;
39694;SDS011;25367;-35.352;149.036;2022-07-29T00:03:46;2.72;;;0.85;;
39694;SDS011;25367;-35.352;149.036;2022-07-29T00:06:16;7.45;;;1.00;;
39694;SDS011;25367;-35.352;149.036;2022-07-29T00:08:46;1.58;;;0.60;;
39694;SDS011;25367;-35.352;149.036;2022-07-29T00:11:16;10.98;;;1.10;;
39694;SDS011;25367;-35.352;149.036;2022-07-29T00:13:46;3.67;;;0.93;;
39694;SDS011;25367;-35.352;149.036;2022-07-29T00:16:16;2.15;;;0.80;;
39694;SDS011;25367;-35.352;149.036;2022-07-29T00:18:49;3.78;;;0.70;;
39694;SDS011;25367;-35.352;149.036;2022-07-29T00:21:19;3.22;;;0.65;;
39694;SDS011;25367;-35.352;149.036;2022-07-29T00:23:49;2.58;;;0.70;;
39694;SDS011;25367;-35.352;149.036;2022-07-29T00:26:18;7.85;;;1.23;;
39694;SDS011;25367;-35.352;149.036;2022-07-29T00:28:48;2.15;;;0.70;;
39694;SDS011;25367;-35.352;149.036;2022-07-29T00:31:18;2.45;;;0.60;;
39694;SDS011;25367;-35.352;149.036;2022-07-29T00:33:49;6.50;;;0.90;;
39694;SDS011;25367;-35.352;149.036;2022-07-29T00:36:19;4.90;;;0.82;;
39694;SDS011;25367;-35.352;149.036;2022-07-29T00:38:49;1.60;;;0.65;;
39694;SDS011;25367;-35.352;149.036;2022-07-29T00:41:20;1.48;;;0.93;;
39694;SDS011;25367;-35.352;149.036;2022-07-29T00:43:49;2.53;;;0.60;;
39694;SDS011;25367;-35.352;149.036;2022-07-29T00:46:19;12.25;;;0.95;;
39694;SDS011;25367;-35.352;149.036;2022-07-29T00:48:51;1.45;;;0.40;;
39694;SDS011;25367;-35.352;149.036;2022-07-29T00:51:22;1.80;;;0.60;;
39694;SDS011;25367;-35.352;149.036;2022-07-29T00:53:53;2.65;;;0.47;;
39694;SDS011;25367;-35.352;149.036;2022-07-29T00:56:23;1.75;;;0.73;;
39694;SDS011;25367;-35.352;149.036;2022-07-29T00:58:53;1.20;;;0.50;;
39694;SDS011;25367;-35.352;149.036;2022-07-29T01:01:25;3.83;;;1.05;;
39694;SDS011;25367;-35.352;149.036;2022-07-29T01:03:57;1.55;;;0.30;;
39694;SDS011;25367;-35.352;149.036;2022-07-29T01:06:27;12.43;;;1.60;;
39694;SDS011;25367;-35.352;149.036;2022-07-29T01:08:57;2.92;;;0.60;;
39694;SDS011;25367;-35.352;149.036;2022-07-29T01:11:27;0.80;;;0.50;;
39694;SDS011;25367;-35.352;149.036;2022-07-29T01:13:57;5.97;;;0.85;;
39694;SDS011;25367;-35.352;149.036;2022-07-29T01:16:28;5.57;;;0.68;;
39694;SDS011;25367;-35.352;149.036;2022-07-29T01:19:04;3.30;;;0.73;;
39694;SDS011;25367;-35.352;149.036;2022-07-29T01:21:50;2.28;;;0.50;;
39694;SDS011;25367;-35.352;149.036;2022-07-29T01:24:35;6.10;;;0.60;;
39694;SDS011;25367;-35.352;149.036;2022-07-29T01:27:26;5.20;;;0.70;;
39694;SDS011;25367;-35.352;149.036;2022-07-29T01:30:12;2.25;;;0.65;;
39694;SDS011;25367;-35.352;149.036;2022-07-29T01:35:15;2.58;;;0.45;;
39694;SDS011;25367;-35.352;149.036;2022-07-29T01:37:51;2.45;;;0.82;;
39694;SDS011;25367;-35.352;149.036;2022-07-29T01:40:31;4.07;;;0.70;;
39694;SDS011;25367;-35.352;149.036;2022-07-29T01:43:05;2.08;;;0.65;;
39694;SDS011;25367;-35.352;149.036;2022-07-29T01:45:43;2.92;;;0.68;;
39694;SDS011;25367;-35.352;149.036;2022-07-29T01:48:16;3.95;;;0.70;;
39694;SDS011;25367;-35.352;149.036;2022-07-29T01:50:52;1.92;;;0.70;;
39694;SDS011;25367;-35.352;149.036;2022-07-29T01:53:26;2.22;;;0.70;;
39694;SDS011;25367;-35.352;149.036;2022-07-29T01:56:01;3.80;;;0.50;;
39694;SDS011;25367;-35.352;149.036;2022-07-29T01:58:32;3.33;;;0.75;;
39694;SDS011;25367;-35.352;149.036;2022-07-29T02:01:10;1.30;;;0.55;;
39694;SDS011;25367;-35.352;149.036;2022-07-29T02:03:43;3.33;;;0.73;;
39694;SDS011;25367;-35.352;149.036;2022-07-29T02:06:15;8.30;;;0.73;;
39694;SDS011;25367;-35.352;149.036;2022-07-29T02:08:48;2.05;;;0.50;;
39694;SDS011;25367;-35.352;149.036;2022-07-29T02:11:20;1.25;;;0.40;;
39694;SDS011;25367;-35.352;149.036;2022-07-29T02:13:50;2.65;;;0.40;;
39694;SDS011;25367;-35.352;149.036;2022-07-29T02:16:26;6.43;;;0.77;;
39694;SDS011;25367;-35.352;149.036;2022-07-29T02:18:58;2.97;;;0.32;;
39694;SDS011;25367;-35.352;149.036;2022-07-29T02:21:30;1.70;;;0.40;;
39694;SDS011;25367;-35.352;149.036;2022-07-29T02:24:01;4.45;;;0.90;;
39694;SDS011;25367;-35.352;149.036;2022-07-29T02:26:32;3.03;;;0.52;;
39694;SDS011;25367;-35.352;149.036;2022-07-29T02:29:03;0.82;;;0.40;;
39694;SDS011;25367;-35.352;149.036;2022-07-29T02:31:36;1.50;;;0.50;;
39694;SDS011;25367;-35.352;149.036;2022-07-29T02:34:08;2.47;;;0.55;;
39694;SDS011;25367;-35.352;149.036;2022-07-29T02:36:40;1.52;;;0.38;;
39694;SDS011;25367;-35.352;149.036;2022-07-29T02:39:11;1.40;;;0.50;;
39694;SDS011;25367;-35.352;149.036;2022-07-29T02:41:43;8.13;;;0.68;;
39694;SDS011;25367;-35.352;149.036;2022-07-29T02:44:15;6.65;;;0.85;;
39694;SDS011;25367;-35.352;149.036;2022-07-29T02:46:53;0.88;;;0.38;;
39694;SDS011;25367;-35.352;149.036;2022-07-29T02:49:30;2.30;;;0.60;;
39694;SDS011;25367;-35.352;149.036;2022-07-29T02:52:06;1.02;;;0.55;;
39694;SDS011;25367;-35.352;149.036;2022-07-29T02:54:42;4.35;;;0.57;;
39694;SDS011;25367;-35.352;149.036;2022-07-29T02:57:22;3.17;;;0.32;;
39694;SDS011;25367;-35.352;149.036;2022-07-29T02:59:57;4.32;;;0.70;;
39694;SDS011;25367;-35.352;149.036;2022-07-29T03:02:32;3.53;;;0.43;;
39694;SDS011;25367;-35.352;149.036;2022-07-29T03:05:04;1.63;;;0.45;;
39694;SDS011;25367;-35.352;149.036;2022-07-29T03:07:36;2.90;;;0.60;;
39694;SDS011;25367;-35.352;149.036;2022-07-29T03:10:09;0.70;;;0.35;;
39694;SDS011;25367;-35.352;149.036;2022-07-29T03:12:40;2.55;;;0.60;;
39694;SDS011;25367;-35.352;149.036;2022-07-29T03:15:10;2.45;;;0.68;;
39694;SDS011;25367;-35.352;149.036;2022-07-29T03:17:42;7.20;;;0.93;;
39694;SDS011;25367;-35.352;149.036;2022-07-29T03:20:13;0.93;;;0.32;;
39694;SDS011;25367;-35.352;149.036;2022-07-29T03:22:44;0.60;;;0.30;;
39694;SDS011;25367;-35.352;149.036;2022-07-29T03:25:15;2.85;;;0.50;;
39694;SDS011;25367;-35.352;149.036;2022-07-29T03:27:46;0.47;;;0.40;;
39694;SDS011;25367;-35.352;149.036;2022-07-29T03:30:16;1.13;;;0.28;;
39694;SDS011;25367;-35.352;149.036;2022-07-29T03:32:49;0.93;;;0.50;;
39694;SDS011;25367;-35.352;149.036;2022-07-29T03:35:19;0.63;;;0.40;;
39694;SDS011;25367;-35.352;149.036;2022-07-29T03:37:49;4.80;;;0.68;;
39694;SDS011;25367;-35.352;149.036;2022-07-29T03:40:19;1.10;;;0.40;;
39694;SDS011;25367;-35.352;149.036;2022-07-29T03:42:54;1.85;;;0.43;;
39694;SDS011;25367;-35.352;149.036;2022-07-29T03:45:26;0.98;;;0.40;;
39694;SDS011;25367;-35.352;149.036;2022-07-29T03:48:01;1.85;;;0.80;;
39694;SDS011;25367;-35.352;149.036;2022-07-29T03:50:33;0.60;;;0.45;;
39694;SDS011;25367;-35.352;149.036;2022-07-29T03:53:05;3.72;;;0.80;;
39694;SDS011;25367;-35.352;149.036;2022-07-29T03:55:37;1.73;;;0.60;;
39694;SDS011;25367;-35.352;149.036;2022-07-29T03:58:11;4.07;;;1.10;;
39694;SDS011;25367;-35.352;149.036;2022-07-29T04:00:42;2.10;;;0.50;;
39694;SDS011;25367;-35.352;149.036;2022-07-29T04:03:16;4.10;;;0.98;;
39694;SDS011;25367;-35.352;149.036;2022-07-29T04:05:57;8.05;;;0.73;;
39694;SDS011;25367;-35.352;149.036;2022-07-29T04:08:28;8.13;;;0.63;;
39694;SDS011;25367;-35.352;149.036;2022-07-29T04:10:58;12.25;;;1.30;;
39694;SDS011;25367;-35.352;149.036;2022-07-29T04:13:28;4.70;;;0.68;;
39694;SDS011;25367;-35.352;149.036;2022-07-29T04:15:59;3.33;;;0.88;;
39694;SDS011;25367;-35.352;149.036;2022-07-29T04:18:32;6.03;;;0.90;;
39694;SDS011;25367;-35.352;149.036;2022-07-29T04:21:02;5.50;;;1.00;;
39694;SDS011;25367;-35.352;149.036;2022-07-29T04:23:32;9.48;;;1.77;;
39694;SDS011;25367;-35.352;149.036;2022-07-29T04:26:02;1.67;;;0.73;;
39694;SDS011;25367;-35.352;149.036;2022-07-29T04:28:35;5.53;;;0.75;;
39694;SDS011;25367;-35.352;149.036;2022-07-29T04:31:05;10.83;;;1.40;;
39694;SDS011;25367;-35.352;149.036;2022-07-29T04:33:37;10.75;;;0.88;;
39694;SDS011;25367;-35.352;149.036;2022-07-29T04:36:07;6.22;;;1.23;;
39694;SDS011;25367;-35.352;149.036;2022-07-29T04:38:37;5.65;;;0.80;;
39694;SDS011;25367;-35.352;149.036;2022-07-29T04:41:07;4.97;;;0.98;;
39694;SDS011;25367;-35.352;149.036;2022-07-29T04:43:37;7.95;;;0.60;;
39694;SDS011;25367;-35.352;149.036;2022-07-29T04:46:07;6.78;;;0.80;;
39694;SDS011;25367;-35.352;149.036;2022-07-29T04:48:38;5.15;;;0.80;;
39694;SDS011;25367;-35.352;149.036;2022-07-29T04:51:08;4.20;;;0.60;;
39694;SDS011;25367;-35.352;149.036;2022-07-29T04:53:38;1.10;;;0.52;;
39694;SDS011;25367;-35.352;149.036;2022-07-29T04:56:08;4.13;;;0.60;;
39694;SDS011;25367;-35.352;149.036;2022-07-29T04:58:38;3.33;;;0.88;;
39694;SDS011;25367;-35.352;149.036;2022-07-29T05:01:07;3.95;;;0.85;;
39694;SDS011;25367;-35.352;149.036;2022-07-29T05:03:39;3.97;;;0.52;;
39694;SDS011;25367;-35.352;149.036;2022-07-29T05:06:09;3.75;;;0.68;;
39694;SDS011;25367;-35.352;149.036;2022-07-29T05:08:39;1.08;;;0.50;;
39694;SDS011;25367;-35.352;149.036;2022-07-29T05:11:09;2.30;;;0.45;;
39694;SDS011;25367;-35.352;149.036;2022-07-29T05:13:39;3.28;;;0.70;;
39694;SDS011;25367;-35.352;149.036;2022-07-29T05:16:08;1.88;;;0.50;;
39694;SDS011;25367;-35.352;149.036;2022-07-29T05:18:40;0.90;;;0.32;;
39694;SDS011;25367;-35.352;149.036;2022-07-29T05:21:10;1.25;;;0.60;;
39694;SDS011;25367;-35.352;149.036;2022-07-29T05:23:40;2.65;;;0.65;;
39694;SDS011;25367;-35.352;149.036;2022-07-29T05:26:10;1.60;;;0.50;;
39694;SDS011;25367;-35.352;149.036;2022-07-29T05:28:39;1.40;;;0.73;;
39694;SDS011;25367;-35.352;149.036;2022-07-29T05:31:09;0.65;;;0.35;;
39694;SDS011;25367;-35.352;149.036;2022-07-29T05:33:41;8.02;;;0.93;;
39694;SDS011;25367;-35.352;149.036;2022-07-29T05:36:10;1.90;;;0.88;;
39694;SDS011;25367;-35.352;149.036;2022-07-29T05:38:41;2.75;;;0.90;;
39694;SDS011;25367;-35.352;149.036;2022-07-29T05:41:10;0.38;;;0.35;;
39694;SDS011;25367;-35.352;149.036;2022-07-29T05:43:40;7.10;;;0.73;;
39694;SDS011;25367;-35.352;149.036;2022-07-29T05:46:10;10.73;;;1.10;;
39694;SDS011;25367;-35.352;149.036;2022-07-29T05:48:44;14.90;;;0.90;;
39694;SDS011;25367;-35.352;149.036;2022-07-29T05:51:14;3.03;;;0.68;;
39694;SDS011;25367;-35.352;149.036;2022-07-29T05:53:44;1.95;;;0.47;;
39694;SDS011;25367;-35.352;149.036;2022-07-29T05:56:14;1.70;;;0.57;;
39694;SDS011;25367;-35.352;149.036;2022-07-29T05:58:44;2.45;;;0.50;;
39694;SDS011;25367;-35.352;149.036;2022-07-29T06:01:14;3.10;;;0.60;;
39694;SDS011;25367;-35.352;149.036;2022-07-29T06:03:46;7.68;;;1.00;;
39694;SDS011;25367;-35.352;149.036;2022-07-29T06:06:16;2.83;;;0.85;;
39694;SDS011;25367;-35.352;149.036;2022-07-29T06:08:45;8.18;;;1.08;;
39694;SDS011;25367;-35.352;149.036;2022-07-29T06:11:15;6.70;;;0.90;;
39694;SDS011;25367;-35.352;149.036;2022-07-29T06:13:45;7.13;;;0.70;;
39694;SDS011;25367;-35.352;149.036;2022-07-29T06:16:15;1.42;;;0.63;;
39694;SDS011;25367;-35.352;149.036;2022-07-29T06:18:47;1.73;;;0.50;;
39694;SDS011;25367;-35.352;149.036;2022-07-29T06:21:17;5.80;;;0.55;;
39694;SDS011;25367;-35.352;149.036;2022-07-29T06:23:47;3.45;;;0.50;;
39694;SDS011;25367;-35.352;149.036;2022-07-29T06:26:17;3.70;;;0.70;;
39694;SDS011;25367;-35.352;149.036;2022-07-29T06:28:47;2.10;;;0.60;;
39694;SDS011;25367;-35.352;149.036;2022-07-29T06:31:17;4.80;;;0.63;;
39694;SDS011;25367;-35.352;149.036;2022-07-29T06:33:49;2.35;;;0.55;;
39694;SDS011;25367;-35.352;149.036;2022-07-29T06:36:19;4.57;;;0.80;;
39694;SDS011;25367;-35.352;149.036;2022-07-29T06:38:50;6.32;;;0.90;;
39694;SDS011;25367;-35.352;149.036;2022-07-29T06:41:20;4.97;;;0.90;;
39694;SDS011;25367;-35.352;149.036;2022-07-29T06:43:50;4.55;;;0.60;;
39694;SDS011;25367;-35.352;149.036;2022-07-29T06:46:21;2.47;;;0.60;;
39694;SDS011;25367;-35.352;149.036;2022-07-29T06:48:54;5.72;;;0.63;;
39694;SDS011;25367;-35.352;149.036;2022-07-29T06:51:23;3.28;;;1.90;;
39694;SDS011;25367;-35.352;149.036;2022-07-29T06:53:53;5.05;;;0.38;;
39694;SDS011;25367;-35.352;149.036;2022-07-29T06:56:24;3.08;;;0.57;;
39694;SDS011;25367;-35.352;149.036;2022-07-29T06:58:54;3.42;;;0.52;;
39694;SDS011;25367;-35.352;149.036;2022-07-29T07:01:24;3.05;;;1.95;;
39694;SDS011;25367;-35.352;149.036;2022-07-29T07:03:58;6.43;;;0.90;;
39694;SDS011;25367;-35.352;149.036;2022-07-29T07:08:56;1.27;;;0.47;;
39694;SDS011;25367;-35.352;149.036;2022-07-29T07:11:26;22.10;;;1.83;;
39694;SDS011;25367;-35.352;149.036;2022-07-29T07:13:56;5.38;;;0.95;;
39694;SDS011;25367;-35.352;149.036;2022-07-29T07:16:26;6.88;;;0.82;;
39694;SDS011;25367;-35.352;149.036;2022-07-29T07:18:58;5.13;;;0.40;;
39694;SDS011;25367;-35.352;149.036;2022-07-29T07:21:28;4.28;;;0.65;;
39694;SDS011;25367;-35.352;149.036;2022-07-29T07:23:59;6.22;;;0.50;;
39694;SDS011;25367;-35.352;149.036;2022-07-29T07:26:29;6.35;;;0.90;;
39694;SDS011;25367;-35.352;149.036;2022-07-29T07:29:00;4.95;;;1.02;;
39694;SDS011;25367;-35.352;149.036;2022-07-29T07:31:29;2.40;;;1.05;;
39694;SDS011;25367;-35.352;149.036;2022-07-29T07:34:01;2.53;;;0.43;;
39694;SDS011;25367;-35.352;149.036;2022-07-29T07:36:32;3.40;;;1.17;;
39694;SDS011;25367;-35.352;149.036;2022-07-29T07:39:02;3.85;;;0.60;;
39694;SDS011;25367;-35.352;149.036;2022-07-29T07:41:32;2.58;;;0.70;;
39694;SDS011;25367;-35.352;149.036;2022-07-29T07:44:02;6.55;;;0.90;;
39694;SDS011;25367;-35.352;149.036;2022-07-29T07:46:32;8.82;;;1.13;;
39694;SDS011;25367;-35.352;149.036;2022-07-29T07:49:06;6.40;;;0.85;;
39694;SDS011;25367;-35.352;149.036;2022-07-29T07:51:36;8.10;;;1.00;;
39694;SDS011;25367;-35.352;149.036;2022-07-29T07:54:06;5.32;;;0.95;;
39694;SDS011;25367;-35.352;149.036;2022-07-29T07:56:36;2.15;;;0.75;;
39694;SDS011;25367;-35.352;149.036;2022-07-29T07:59:06;4.47;;;0.95;;
39694;SDS011;25367;-35.352;149.036;2022-07-29T08:01:37;6.72;;;0.98;;
39694;SDS011;25367;-35.352;149.036;2022-07-29T08:04:09;3.65;;;0.80;;
39694;SDS011;25367;-35.352;149.036;2022-07-29T08:06:39;4.80;;;0.73;;
39694;SDS011;25367;-35.352;149.036;2022-07-29T08:09:09;4.05;;;0.57;;
39694;SDS011;25367;-35.352;149.036;2022-07-29T08:11:39;4.78;;;0.70;;
39694;SDS011;25367;-35.352;149.036;2022-07-29T08:14:09;2.00;;;0.35;;
39694;SDS011;25367;-35.352;149.036;2022-07-29T08:16:39;1.40;;;0.40;;
39694;SDS011;25367;-35.352;149.036;2022-07-29T08:19:11;5.43;;;0.57;;
39694;SDS011;25367;-35.352;149.036;2022-07-29T08:21:41;1.20;;;0.50;;
39694;SDS011;25367;-35.352;149.036;2022-07-29T08:24:11;4.90;;;0.80;;
39694;SDS011;25367;-35.352;149.036;2022-07-29T08:26:41;3.75;;;1.23;;
39694;SDS011;25367;-35.352;149.036;2022-07-29T08:29:11;3.42;;;0.68;;
39694;SDS011;25367;-35.352;149.036;2022-07-29T08:31:41;6.57;;;0.85;;
39694;SDS011;25367;-35.352;149.036;2022-07-29T08:34:14;4.45;;;0.65;;
39694;SDS011;25367;-35.352;149.036;2022-07-29T08:36:43;2.20;;;0.45;;
39694;SDS011;25367;-35.352;149.036;2022-07-29T08:39:13;2.60;;;0.80;;
39694;SDS011;25367;-35.352;149.036;2022-07-29T08:41:43;2.08;;;0.52;;
39694;SDS011;25367;-35.352;149.036;2022-07-29T08:44:13;7.25;;;0.65;;
39694;SDS011;25367;-35.352;149.036;2022-07-29T08:46:45;10.85;;;2.42;;
39694;SDS011;25367;-35.352;149.036;2022-07-29T08:49:17;9.82;;;2.50;;
39694;SDS011;25367;-35.352;149.036;2022-07-29T08:51:47;6.55;;;2.80;;
39694;SDS011;25367;-35.352;149.036;2022-07-29T08:54:18;8.10;;;2.50;;
39694;SDS011;25367;-35.352;149.036;2022-07-29T08:56:51;5.10;;;2.83;;
39694;SDS011;25367;-35.352;149.036;2022-07-29T08:59:22;7.40;;;2.20;;
39694;SDS011;25367;-35.352;149.036;2022-07-29T09:01:54;5.63;;;2.38;;
39694;SDS011;25367;-35.352;149.036;2022-07-29T09:04:29;3.45;;;2.08;;
39694;SDS011;25367;-35.352;149.036;2022-07-29T09:07:03;9.10;;;2.00;;
39694;SDS011;25367;-35.352;149.036;2022-07-29T09:09:33;4.28;;;2.00;;
39694;SDS011;25367;-35.352;149.036;2022-07-29T09:12:03;4.60;;;2.30;;
39694;SDS011;25367;-35.352;149.036;2022-07-29T09:14:33;8.30;;;1.80;;
39694;SDS011;25367;-35.352;149.036;2022-07-29T09:17:03;10.57;;;2.33;;
39694;SDS011;25367;-35.352;149.036;2022-07-29T09:19:35;4.13;;;1.92;;
39694;SDS011;25367;-35.352;149.036;2022-07-29T09:22:06;4.27;;;1.80;;
39694;SDS011;25367;-35.352;149.036;2022-07-29T09:24:43;9.45;;;2.20;;
39694;SDS011;25367;-35.352;149.036;2022-07-29T09:27:23;14.40;;;2.45;;
39694;SDS011;25367;-35.352;149.036;2022-07-29T09:29:57;4.47;;;2.15;;
39694;SDS011;25367;-35.352;149.036;2022-07-29T09:32:28;4.80;;;2.35;;
39694;SDS011;25367;-35.352;149.036;2022-07-29T09:35:18;4.38;;;2.05;;
39694;SDS011;25367;-35.352;149.036;2022-07-29T09:37:49;5.07;;;2.30;;
39694;SDS011;25367;-35.352;149.036;2022-07-29T09:40:19;3.08;;;1.23;;
39694;SDS011;25367;-35.352;149.036;2022-07-29T09:42:49;3.53;;;1.17;;
39694;SDS011;25367;-35.352;149.036;2022-07-29T09:45:28;10.57;;;1.30;;
39694;SDS011;25367;-35.352;149.036;2022-07-29T09:47:59;2.58;;;0.85;;
39694;SDS011;25367;-35.352;149.036;2022-07-29T09:50:44;3.03;;;1.27;;
39694;SDS011;25367;-35.352;149.036;2022-07-29T09:53:29;2.55;;;1.20;;
39694;SDS011;25367;-35.352;149.036;2022-07-29T09:56:00;3.22;;;1.20;;
39694;SDS011;25367;-35.352;149.036;2022-07-29T09:58:31;2.15;;;1.35;;
39694;SDS011;25367;-35.352;149.036;2022-07-29T10:01:01;1.70;;;1.10;;
39694;SDS011;25367;-35.352;149.036;2022-07-29T10:03:31;2.35;;;1.30;;
39694;SDS011;25367;-35.352;149.036;2022-07-29T10:06:19;5.13;;;1.40;;
39694;SDS011;25367;-35.352;149.036;2022-07-29T10:08:49;3.03;;;1.30;;
39694;SDS011;25367;-35.352;149.036;2022-07-29T10:11:19;2.15;;;1.17;;
39694;SDS011;25367;-35.352;149.036;2022-07-29T10:13:49;2.03;;;0.90;;
39694;SDS011;25367;-35.352;149.036;2022-07-29T10:16:19;2.13;;;1.48;;
39694;SDS011;25367;-35.352;149.036;2022-07-29T10:18:49;1.67;;;0.80;;
39694;SDS011;25367;-35.352;149.036;2022-07-29T10:21:22;4.18;;;2.05;;
39694;SDS011;25367;-35.352;149.036;2022-07-29T10:23:52;2.95;;;2.17;;
39694;SDS011;25367;-35.352;149.036;2022-07-29T10:26:23;2.95;;;2.58;;
39694;SDS011;25367;-35.352;149.036;2022-07-29T10:28:53;4.30;;;1.70;;
39694;SDS011;25367;-35.352;149.036;2022-07-29T10:31:24;2.17;;;1.90;;
39694;SDS011;25367;-35.352;149.036;2022-07-29T10:34:02;2.38;;;2.17;;
39694;SDS011;25367;-35.352;149.036;2022-07-29T10:36:41;2.40;;;2.20;;
39694;SDS011;25367;-35.352;149.036;2022-07-29T10:39:20;2.50;;;2.30;;
39694;SDS011;25367;-35.352;149.036;2022-07-29T10:42:04;2.58;;;2.17;;
39694;SDS011;25367;-35.352;149.036;2022-07-29T10:44:40;1.98;;;1.88;;
39694;SDS011;25367;-35.352;149.036;2022-07-29T10:47:19;2.80;;;2.22;;
39694;SDS011;25367;-35.352;149.036;2022-07-29T10:49:59;2.10;;;1.95;;
39694;SDS011;25367;-35.352;149.036;2022-07-29T10:58:14;2.08;;;1.98;;
39694;SDS011;25367;-35.352;149.036;2022-07-29T11:00:45;10.52;;;2.22;;
39694;SDS011;25367;-35.352;149.036;2022-07-29T11:06:13;4.60;;;0.80;;
39694;SDS011;25367;-35.352;149.036;2022-07-29T11:08:44;1.15;;;0.50;;
39694;SDS011;25367;-35.352;149.036;2022-07-29T11:11:34;1.48;;;0.60;;
39694;SDS011;25367;-35.352;149.036;2022-07-29T11:14:03;3.13;;;0.70;;
39694;SDS011;25367;-35.352;149.036;2022-07-29T11:19:30;1.33;;;0.60;;
39694;SDS011;25367;-35.352;149.036;2022-07-29T11:22:00;5.45;;;0.95;;
39694;SDS011;25367;-35.352;149.036;2022-07-29T11:24:31;2.97;;;0.65;;
39694;SDS011;25367;-35.352;149.036;2022-07-29T11:27:10;2.90;;;0.30;;
39694;SDS011;25367;-35.352;149.036;2022-07-29T11:29:48;7.75;;;0.90;;
39694;SDS011;25367;-35.352;149.036;2022-07-29T11:32:18;0.80;;;0.43;;
39694;SDS011;25367;-35.352;149.036;2022-07-29T11:34:49;1.60;;;0.40;;
39694;SDS011;25367;-35.352;149.036;2022-07-29T11:37:39;2.00;;;0.55;;
39694;SDS011;25367;-35.352;149.036;2022-07-29T11:40:11;2.35;;;0.60;;
39694;SDS011;25367;-35.352;149.036;2022-07-29T11:42:51;13.02;;;0.75;;
39694;SDS011;25367;-35.352;149.036;2022-07-29T11:45:24;2.92;;;0.68;;
39694;SDS011;25367;-35.352;149.036;2022-07-29T11:47:55;4.60;;;0.50;;
39694;SDS011;25367;-35.352;149.036;2022-07-29T11:50:34;0.75;;;0.45;;
39694;SDS011;25367;-35.352;149.036;2022-07-29T11:53:10;2.10;;;0.60;;
39694;SDS011;25367;-35.352;149.036;2022-07-29T11:55:42;3.67;;;0.60;;
39694;SDS011;25367;-35.352;149.036;2022-07-29T11:58:11;3.92;;;0.80;;
39694;SDS011;25367;-35.352;149.036;2022-07-29T12:00:41;2.42;;;0.40;;
39694;SDS011;25367;-35.352;149.036;2022-07-29T12:03:22;1.40;;;0.63;;
39694;SDS011;25367;-35.352;149.036;2022-07-29T12:05:53;2.40;;;0.45;;
39694;SDS011;25367;-35.352;149.036;2022-07-29T12:08:23;0.65;;;0.28;;
39694;SDS011;25367;-35.352;149.036;2022-07-29T12:10:56;7.10;;;5.20;;
39694;SDS011;25367;-35.352;149.036;2022-07-29T12:13:25;5.03;;;4.63;;
39694;SDS011;25367;-35.352;149.036;2022-07-29T12:16:07;6.25;;;4.85;;
39694;SDS011;25367;-35.352;149.036;2022-07-29T12:18:36;5.18;;;4.07;;
39694;SDS011;25367;-35.352;149.036;2022-07-29T12:21:06;4.15;;;3.75;;
39694;SDS011;25367;-35.352;149.036;2022-07-29T12:23:35;4.93;;;4.13;;
39694;SDS011;25367;-35.352;149.036;2022-07-29T12:26:08;2.08;;;0.70;;
39694;SDS011;25367;-35.352;149.036;2022-07-29T12:28:38;9.45;;;4.18;;
39694;SDS011;25367;-35.352;149.036;2022-07-29T12:31:12;6.03;;;4.25;;
39694;SDS011;25367;-35.352;149.036;2022-07-29T12:33:42;5.18;;;4.15;;
39694;SDS011;25367;-35.352;149.036;2022-07-29T12:36:19;4.72;;;4.32;;
39694;SDS011;25367;-35.352;149.036;2022-07-29T12:38:49;4.40;;;4.05;;
39694;SDS011;25367;-35.352;149.036;2022-07-29T12:41:22;3.88;;;3.58;;
39694;SDS011;25367;-35.352;149.036;2022-07-29T12:43:54;5.13;;;3.83;;
39694;SDS011;25367;-35.352;149.036;2022-07-29T12:46:24;4.35;;;3.95;;
39694;SDS011;25367;-35.352;149.036;2022-07-29T12:48:54;3.80;;;3.42;;
39694;SDS011;25367;-35.352;149.036;2022-07-29T12:51:28;3.90;;;3.55;;
39694;SDS011;25367;-35.352;149.036;2022-07-29T12:54:05;4.22;;;3.92;;
39694;SDS011;25367;-35.352;149.036;2022-07-29T12:56:40;3.60;;;3.40;;
39694;SDS011;25367;-35.352;149.036;2022-07-29T12:59:14;3.47;;;3.28;;
39694;SDS011;25367;-35.352;149.036;2022-07-29T13:01:43;3.30;;;3.10;;
39694;SDS011;25367;-35.352;149.036;2022-07-29T13:04:23;3.83;;;3.50;;
39694;SDS011;25367;-35.352;149.036;2022-07-29T13:07:01;3.00;;;2.80;;
39694;SDS011;25367;-35.352;149.036;2022-07-29T13:09:38;3.78;;;3.47;;
39694;SDS011;25367;-35.352;149.036;2022-07-29T13:12:13;10.40;;;3.95;;
39694;SDS011;25367;-35.352;149.036;2022-07-29T13:14:43;3.55;;;3.17;;
39694;SDS011;25367;-35.352;149.036;2022-07-29T13:17:14;3.63;;;3.33;;
39694;SDS011;25367;-35.352;149.036;2022-07-29T13:19:45;3.58;;;3.28;;
39694;SDS011;25367;-35.352;149.036;2022-07-29T13:22:16;2.80;;;2.60;;
39694;SDS011;25367;-35.352;149.036;2022-07-29T13:24:47;3.42;;;3.22;;
39694;SDS011;25367;-35.352;149.036;2022-07-29T13:27:20;4.05;;;3.70;;
39694;SDS011;25367;-35.352;149.036;2022-07-29T13:29:50;4.72;;;3.53;;
39694;SDS011;25367;-35.352;149.036;2022-07-29T13:32:19;3.67;;;3.38;;
39694;SDS011;25367;-35.352;149.036;2022-07-29T13:34:50;4.28;;;3.60;;
39694;SDS011;25367;-35.352;149.036;2022-07-29T13:37:20;2.90;;;2.70;;
39694;SDS011;25367;-35.352;149.036;2022-07-29T13:39:49;3.88;;;3.60;;
39694;SDS011;25367;-35.352;149.036;2022-07-29T13:42:22;3.80;;;3.50;;
39694;SDS011;25367;-35.352;149.036;2022-07-29T13:44:52;3.53;;;3.33;;
39694;SDS011;25367;-35.352;149.036;2022-07-29T13:47:22;3.60;;;3.33;;
39694;SDS011;25367;-35.352;149.036;2022-07-29T13:49:52;3.42;;;3.22;;
39694;SDS011;25367;-35.352;149.036;2022-07-29T13:52:22;3.50;;;3.28;;
39694;SDS011;25367;-35.352;149.036;2022-07-29T13:54:51;3.50;;;3.30;;
39694;SDS011;25367;-35.352;149.036;2022-07-29T13:57:23;3.13;;;2.92;;
39694;SDS011;25367;-35.352;149.036;2022-07-29T13:59:52;3.97;;;3.67;;
39694;SDS011;25367;-35.352;149.036;2022-07-29T14:02:22;3.15;;;2.95;;
39694;SDS011;25367;-35.352;149.036;2022-07-29T14:04:52;3.80;;;3.50;;
39694;SDS011;25367;-35.352;149.036;2022-07-29T14:07:21;6.38;;;3.63;;
39694;SDS011;25367;-35.352;149.036;2022-07-29T14:09:51;4.22;;;3.92;;
39694;SDS011;25367;-35.352;149.036;2022-07-29T14:12:23;4.22;;;3.97;;
39694;SDS011;25367;-35.352;149.036;2022-07-29T14:14:53;5.07;;;4.77;;
39694;SDS011;25367;-35.352;149.036;2022-07-29T14:17:24;6.25;;;5.75;;
39694;SDS011;25367;-35.352;149.036;2022-07-29T14:19:54;5.13;;;4.72;;
39694;SDS011;25367;-35.352;149.036;2022-07-29T14:22:24;5.68;;;5.28;;
39694;SDS011;25367;-35.352;149.036;2022-07-29T14:24:54;11.98;;;1.33;;
39694;SDS011;25367;-35.352;149.036;2022-07-29T14:27:26;7.03;;;0.30;;
39694;SDS011;25367;-35.352;149.036;2022-07-29T14:29:55;3.30;;;0.32;;
39694;SDS011;25367;-35.352;149.036;2022-07-29T14:32:26;8.23;;;0.55;;
39694;SDS011;25367;-35.352;149.036;2022-07-29T14:34:56;11.60;;;0.55;;
39694;SDS011;25367;-35.352;149.036;2022-07-29T14:37:25;0.38;;;0.20;;
39694;SDS011;25367;-35.352;149.036;2022-07-29T14:39:55;2.92;;;0.25;;
39694;SDS011;25367;-35.352;149.036;2022-07-29T14:42:27;3.38;;;0.30;;
39694;SDS011;25367;-35.352;149.036;2022-07-29T14:44:57;0.47;;;0.25;;
39694;SDS011;25367;-35.352;149.036;2022-07-29T14:47:26;2.65;;;0.40;;
39694;SDS011;25367;-35.352;149.036;2022-07-29T14:49:56;2.58;;;0.45;;
39694;SDS011;25367;-35.352;149.036;2022-07-29T14:52:26;2.40;;;0.47;;